Time;durP1;ratioP1;P1;durP2;ratioP2;P2;SDS_P1;SDS_P2;PMS_P1;PMS_P2;Temp;Humidity;BMP_temperature;BMP_pressure;BME280_temperature;BME280_humidity;BME280_pressure;Samples;Min_cycle;Max_cycle;Signal;HPM_P1;HPM_P2
2023/08/26 00:00:35;;;;;;;7.60;4.00;;;;;;;19.23;100.00;96851.03;4972538;28;20046;-62
2023/08/26 00:03:02;;;;;;;7.75;4.13;;;;;;;19.22;100.00;96843.09;5004063;28;20077;-62
2023/08/26 00:05:28;;;;;;;5.78;4.07;;;;;;;19.17;100.00;96840.53;4999562;28;20048;-62
2023/08/26 00:07:55;;;;;;;7.30;4.65;;;;;;;19.03;100.00;96833.22;4971122;28;20530;-62
2023/08/26 00:10:22;;;;;;;7.38;4.38;;;;;;;18.97;100.00;96843.53;4978318;28;20045;-61
2023/08/26 00:12:49;;;;;;;6.95;3.83;;;;;;;18.94;100.00;96841.44;4964783;28;20043;-62
2023/08/26 00:15:16;;;;;;;7.90;4.88;;;;;;;18.97;100.00;96821.59;4995936;28;20045;-61
2023/08/26 00:17:42;;;;;;;9.65;4.47;;;;;;;18.98;100.00;96822.38;4977079;28;20050;-61
2023/08/26 00:20:09;;;;;;;6.20;4.25;;;;;;;18.91;100.00;96835.78;4974797;28;20069;-62
2023/08/26 00:22:37;;;;;;;9.15;4.82;;;;;;;18.79;100.00;96867.38;4967667;28;20047;-62
2023/08/26 00:25:04;;;;;;;9.20;4.72;;;;;;;18.78;100.00;96874.00;5002028;28;20044;-62
2023/08/26 00:27:31;;;;;;;10.13;4.68;;;;;;;18.82;100.00;96869.47;4981812;28;20053;-62
2023/08/26 00:29:57;;;;;;;9.93;4.90;;;;;;;18.90;100.00;96836.91;4972731;28;20047;-62
2023/08/26 00:32:24;;;;;;;8.45;3.83;;;;;;;18.99;100.00;96829.50;4994552;28;20047;-62
2023/08/26 00:34:51;;;;;;;7.35;4.13;;;;;;;19.10;100.00;96825.34;4977130;28;20151;-62
2023/08/26 00:37:18;;;;;;;6.78;4.72;;;;;;;19.14;100.00;96814.53;5016311;28;20137;-62
2023/08/26 00:39:46;;;;;;;7.43;4.00;;;;;;;19.05;100.00;96830.16;4977324;28;20078;-62
2023/08/26 00:42:13;;;;;;;7.38;4.53;;;;;;;18.95;100.00;96853.22;4966522;28;20066;-62
2023/08/26 00:44:39;;;;;;;9.57;5.03;;;;;;;18.88;100.00;96875.63;5007036;28;20119;-62
2023/08/26 00:47:07;;;;;;;7.03;4.88;;;;;;;18.83;100.00;96873.84;5008038;28;20043;-62
2023/08/26 00:49:34;;;;;;;6.25;4.32;;;;;;;18.78;100.00;96875.91;5011661;28;20061;-62
2023/08/26 00:52:01;;;;;;;7.63;5.20;;;;;;;18.72;100.00;96897.19;4965332;28;20047;-62
2023/08/26 00:54:32;;;;;;;7.15;4.50;;;;;;;18.77;100.00;96891.56;5002761;28;20043;-61
2023/08/26 00:56:59;;;;;;;9.05;4.85;;;;;;;18.75;100.00;96882.06;4994375;28;20046;-62
2023/08/26 00:59:25;;;;;;;7.53;4.82;;;;;;;18.76;100.00;96895.41;4998586;28;20035;-62
2023/08/26 01:01:54;;;;;;;7.13;4.80;;;;;;;18.66;100.00;96912.19;4970804;28;20054;-61
2023/08/26 01:04:21;;;;;;;8.68;5.65;;;;;;;18.68;100.00;96885.22;4994607;28;20045;-61
2023/08/26 01:06:47;;;;;;;7.47;4.60;;;;;;;18.61;100.00;96882.94;5000323;28;20051;-61
2023/08/26 01:09:14;;;;;;;10.18;5.15;;;;;;;18.59;100.00;96907.16;5006824;28;20057;-61
2023/08/26 01:12:18;;;;;;;10.63;4.97;;;;;;;18.58;100.00;96905.53;5005583;28;20447;-61
2023/08/26 01:14:55;;;;;;;7.38;4.25;;;;;;;18.56;100.00;96918.75;4995375;28;20056;-61
2023/08/26 01:17:22;;;;;;;10.85;5.05;;;;;;;18.48;100.00;96931.28;4961452;28;20070;-62
2023/08/26 01:19:52;;;;;;;8.73;5.15;;;;;;;18.41;100.00;96948.19;4998779;28;20058;-61
2023/08/26 01:22:23;;;;;;;9.70;4.97;;;;;;;18.37;100.00;96982.00;4963431;28;20066;-61
2023/08/26 01:24:50;;;;;;;7.85;5.07;;;;;;;18.30;100.00;97015.34;4999927;28;20059;-61
2023/08/26 01:27:16;;;;;;;7.13;5.57;;;;;;;18.28;100.00;97018.38;5003769;28;20122;-62
2023/08/26 01:29:43;;;;;;;10.05;5.25;;;;;;;18.28;100.00;97032.09;5010233;28;20049;-62
2023/08/26 01:32:14;;;;;;;9.70;5.90;;;;;;;18.28;100.00;97043.03;4994529;28;20126;-62
2023/08/26 01:34:46;;;;;;;9.38;5.43;;;;;;;18.19;100.00;97042.16;4994682;28;20040;-62
2023/08/26 01:37:14;;;;;;;10.15;6.40;;;;;;;18.19;100.00;97050.38;4991168;28;20043;-62
2023/08/26 01:39:41;;;;;;;7.25;5.75;;;;;;;18.22;100.00;97047.03;4981003;28;20033;-62
2023/08/26 01:42:09;;;;;;;12.70;6.47;;;;;;;18.28;100.00;97064.19;5017777;28;20593;-62
2023/08/26 01:44:36;;;;;;;9.80;5.13;;;;;;;18.25;100.00;97040.94;5021139;28;20560;-62
2023/08/26 01:47:04;;;;;;;8.55;4.72;;;;;;;18.21;100.00;97020.75;5038571;28;20076;-61
2023/08/26 01:49:30;;;;;;;9.20;4.88;;;;;;;18.25;100.00;97032.72;5035203;28;20052;-61
2023/08/26 01:51:57;;;;;;;10.45;5.03;;;;;;;18.26;100.00;97023.38;5015035;28;20048;-62
2023/08/26 01:54:24;;;;;;;8.20;4.47;;;;;;;18.29;100.00;97022.75;5006188;28;20049;-62
2023/08/26 01:56:50;;;;;;;8.80;4.95;;;;;;;18.26;100.00;97006.13;5036043;28;20051;-61
2023/08/26 01:59:17;;;;;;;7.43;4.35;;;;;;;18.18;100.00;96988.50;4997333;28;20342;-62
2023/08/26 02:01:44;;;;;;;8.30;5.15;;;;;;;18.28;100.00;96996.47;4961331;28;20058;-61
2023/08/26 02:04:10;;;;;;;7.15;4.70;;;;;;;18.33;100.00;96959.91;5003842;28;20047;-62
2023/08/26 02:06:40;;;;;;;6.60;4.32;;;;;;;18.35;100.00;96954.13;5055190;28;20044;-61
2023/08/26 02:09:07;;;;;;;6.00;4.18;;;;;;;18.40;100.00;96927.38;4979632;28;20040;-61
2023/08/26 02:11:33;;;;;;;8.55;4.20;;;;;;;18.32;100.00;96931.69;4994504;28;20090;-61
2023/08/26 02:14:00;;;;;;;7.25;4.35;;;;;;;18.27;100.00;96933.75;4964812;28;20096;-62
2023/08/26 02:16:27;;;;;;;8.57;4.55;;;;;;;18.21;100.00;96941.31;5014234;28;20046;-61
2023/08/26 02:18:54;;;;;;;11.20;5.32;;;;;;;18.16;100.00;96957.84;4998709;28;20047;-62
2023/08/26 02:21:20;;;;;;;7.97;4.90;;;;;;;18.10;100.00;96962.66;5019238;28;20113;-62
2023/08/26 02:23:47;;;;;;;7.45;4.30;;;;;;;18.14;100.00;96955.41;4999723;28;20047;-61
2023/08/26 02:26:15;;;;;;;8.07;4.50;;;;;;;18.17;100.00;96948.53;5040282;28;20083;-61
2023/08/26 02:28:42;;;;;;;7.05;4.43;;;;;;;18.21;100.00;96924.88;5050946;28;20048;-61
2023/08/26 02:31:08;;;;;;;8.93;4.22;;;;;;;18.21;100.00;96924.88;5016274;28;20086;-61
2023/08/26 02:33:35;;;;;;;13.32;4.45;;;;;;;18.19;100.00;96927.91;5011884;28;20131;-62
2023/08/26 02:36:03;;;;;;;7.38;4.10;;;;;;;18.19;100.00;96924.34;5012706;28;20069;-62
2023/08/26 02:38:31;;;;;;;10.10;4.32;;;;;;;18.14;100.00;96944.47;5019015;28;20116;-61
2023/08/26 02:40:59;;;;;;;9.52;4.40;;;;;;;18.16;100.00;96941.41;5026824;28;20138;-62
2023/08/26 02:43:26;;;;;;;6.63;3.72;;;;;;;18.21;100.00;96935.81;5005617;28;20151;-61
2023/08/26 02:45:54;;;;;;;10.20;4.32;;;;;;;18.20;100.00;96923.22;4996948;28;20052;-61
2023/08/26 02:48:21;;;;;;;11.38;4.72;;;;;;;18.15;100.00;96920.63;4999853;28;20045;-62
2023/08/26 02:50:57;;;;;;;7.07;3.90;;;;;;;18.14;100.00;96929.97;4973809;28;20058;-61
2023/08/26 02:53:25;;;;;;;10.50;4.45;;;;;;;18.11;100.00;96933.31;4992620;28;20641;-62
2023/08/26 02:55:52;;;;;;;8.63;4.00;;;;;;;18.18;100.00;96928.22;5020161;28;20519;-61
2023/08/26 02:58:20;;;;;;;8.60;4.22;;;;;;;18.20;100.00;96917.75;5003951;28;20054;-61
2023/08/26 03:00:47;;;;;;;12.35;4.13;;;;;;;18.15;100.00;96910.47;5041408;28;20044;-62
2023/08/26 03:03:14;;;;;;;10.75;4.55;;;;;;;18.19;100.00;96907.91;5058784;28;20072;-61
2023/08/26 03:05:42;;;;;;;7.93;4.18;;;;;;;18.19;100.00;96916.94;5040846;28;20041;-61
2023/08/26 03:08:08;;;;;;;8.60;3.60;;;;;;;18.14;100.00;96905.31;5055226;28;20063;-61
2023/08/26 03:10:36;;;;;;;7.57;3.85;;;;;;;18.14;100.00;96921.75;4992027;28;20038;-62
2023/08/26 03:13:03;;;;;;;8.90;4.00;;;;;;;18.02;100.00;96917.59;5003668;28;20044;-61
2023/08/26 03:15:29;;;;;;;8.00;4.35;;;;;;;17.95;100.00;96930.94;5032738;28;20508;-62
2023/08/26 03:17:56;;;;;;;8.75;4.63;;;;;;;17.81;100.00;96934.53;4975522;28;20493;-61
2023/08/26 03:20:24;;;;;;;7.78;4.53;;;;;;;17.70;100.00;96957.00;5034627;28;20462;-62
2023/08/26 03:22:51;;;;;;;8.35;4.80;;;;;;;17.59;100.00;96961.91;5003414;28;20139;-62
2023/08/26 03:25:17;;;;;;;8.02;4.30;;;;;;;17.50;100.00;96951.66;5024253;28;20036;-62
2023/08/26 03:27:44;;;;;;;7.90;4.30;;;;;;;17.51;100.00;96960.69;5017020;28;20519;-62
2023/08/26 03:30:11;;;;;;;8.48;4.15;;;;;;;17.56;100.00;96941.44;5016214;28;20040;-62
2023/08/26 03:32:37;;;;;;;7.55;3.88;;;;;;;17.56;100.00;96927.75;4982667;28;20088;-62
2023/08/26 03:35:05;;;;;;;14.68;4.25;;;;;;;17.55;100.00;96934.34;4965061;28;20039;-61
2023/08/26 03:37:31;;;;;;;12.95;4.05;;;;;;;17.58;100.00;96935.66;5015853;28;20098;-62
2023/08/26 03:39:59;;;;;;;7.72;3.45;;;;;;;17.59;100.00;96943.56;4976460;28;20072;-62
2023/08/26 03:42:26;;;;;;;6.25;4.07;;;;;;;17.59;100.00;96940.81;5044007;28;20086;-62
2023/08/26 03:44:53;;;;;;;7.47;3.90;;;;;;;17.51;100.00;96939.59;5004195;28;20052;-62
2023/08/26 03:47:19;;;;;;;7.93;3.80;;;;;;;17.33;100.00;96941.38;4986297;28;20050;-62
2023/08/26 03:49:46;;;;;;;7.85;3.85;;;;;;;17.28;100.00;96955.97;5041246;28;20078;-61
2023/08/26 03:52:13;;;;;;;6.78;4.07;;;;;;;17.16;100.00;96963.88;4985619;28;20156;-62
2023/08/26 03:54:39;;;;;;;8.50;4.35;;;;;;;17.02;100.00;96964.69;5057625;28;20051;-62
2023/08/26 03:57:06;;;;;;;8.25;4.63;;;;;;;16.86;100.00;96991.53;4986777;28;22147;-62
2023/08/26 03:59:33;;;;;;;8.98;4.70;;;;;;;16.86;100.00;97009.84;4996147;28;20051;-61
2023/08/26 04:02:02;;;;;;;8.48;4.35;;;;;;;16.81;100.00;97001.75;4995656;28;20035;-62
2023/08/26 04:04:30;;;;;;;7.63;4.57;;;;;;;16.75;100.00;97006.47;4965770;28;20047;-62
2023/08/26 04:06:57;;;;;;;10.65;5.80;;;;;;;16.66;100.00;97019.22;5036172;28;20113;-62
2023/08/26 04:09:24;;;;;;;9.10;4.65;;;;;;;16.66;100.00;97036.41;5001782;28;20577;-61
2023/08/26 04:11:50;;;;;;;13.48;5.70;;;;;;;16.70;100.00;97012.84;5012427;28;20106;-62
2023/08/26 04:14:17;;;;;;;12.45;5.18;;;;;;;16.74;100.00;97005.66;4965140;28;20645;-62
2023/08/26 04:16:44;;;;;;;11.80;4.85;;;;;;;16.76;100.00;96995.25;4994467;28;20042;-63
2023/08/26 04:19:11;;;;;;;13.70;5.53;;;;;;;16.72;100.00;96988.75;4964027;28;20066;-62
2023/08/26 04:21:38;;;;;;;11.25;4.97;;;;;;;16.79;100.00;96999.31;4980177;28;20069;-62
2023/08/26 04:24:04;;;;;;;12.57;5.60;;;;;;;16.76;100.00;96995.25;5007821;28;20033;-62
2023/08/26 04:26:31;;;;;;;10.65;5.55;;;;;;;16.78;100.00;96975.81;5013694;28;20449;-62
2023/08/26 04:28:58;;;;;;;10.68;5.30;;;;;;;16.70;100.00;96971.84;4959157;28;20049;-62
2023/08/26 04:31:24;;;;;;;10.02;5.50;;;;;;;16.73;100.00;96965.78;4989827;28;20118;-62
2023/08/26 04:33:52;;;;;;;10.55;5.22;;;;;;;16.74;100.00;96964.66;4963483;28;20686;-62
2023/08/26 04:36:19;;;;;;;8.02;5.00;;;;;;;16.72;100.00;96977.84;4953272;28;20070;-62
2023/08/26 04:38:45;;;;;;;12.75;5.45;;;;;;;16.72;100.00;96972.38;4961574;28;20047;-62
2023/08/26 04:41:12;;;;;;;8.35;4.68;;;;;;;16.69;100.00;96983.91;4978135;28;20042;-62
2023/08/26 04:43:40;;;;;;;10.93;5.55;;;;;;;16.71;100.00;96997.25;4982247;28;20070;-62
2023/08/26 04:46:07;;;;;;;9.75;5.07;;;;;;;16.74;100.00;96989.25;4983598;28;20195;-62
2023/08/26 04:48:34;;;;;;;9.60;5.07;;;;;;;16.68;100.00;96976.00;5000040;28;20125;-62
2023/08/26 04:51:00;;;;;;;14.57;6.15;;;;;;;16.69;100.00;96991.31;4969121;28;20156;-62
2023/08/26 04:53:27;;;;;;;9.57;5.20;;;;;;;16.57;100.00;97006.25;4958060;28;20448;-62
2023/08/26 04:55:54;;;;;;;11.77;5.15;;;;;;;16.49;100.00;97018.69;4981220;28;20127;-62
2023/08/26 04:58:21;;;;;;;10.77;4.68;;;;;;;16.48;100.00;97016.25;4960624;28;20047;-62
2023/08/26 05:00:48;;;;;;;12.23;6.43;;;;;;;16.48;100.00;97016.25;4977548;28;20044;-62
2023/08/26 05:03:15;;;;;;;10.35;4.95;;;;;;;16.43;100.00;97033.53;5007556;28;20040;-53
2023/08/26 05:05:42;;;;;;;8.10;5.18;;;;;;;16.36;100.00;97035.81;4976370;28;20432;-54
2023/08/26 05:08:09;;;;;;;7.03;4.82;;;;;;;16.34;100.00;97038.06;5001751;28;20133;-55
2023/08/26 05:10:38;;;;;;;9.73;5.38;;;;;;;16.40;100.00;97038.78;4992685;28;20134;-55
2023/08/26 05:13:05;;;;;;;10.70;5.97;;;;;;;16.33;100.00;97050.09;4960110;28;20078;-55
2023/08/26 05:15:34;;;;;;;11.32;5.15;;;;;;;16.29;100.00;97054.53;4961750;28;20624;-54
2023/08/26 05:18:01;;;;;;;9.75;5.82;;;;;;;16.20;100.00;97071.59;4960364;28;20042;-55
2023/08/26 05:20:29;;;;;;;10.05;5.75;;;;;;;16.25;100.00;97076.16;4964262;28;20042;-54
2023/08/26 05:22:56;;;;;;;10.20;5.82;;;;;;;16.30;100.00;97053.44;4962880;28;20107;-52
2023/08/26 05:25:23;;;;;;;9.30;5.43;;;;;;;16.41;100.00;97043.16;4988777;28;20049;-54
2023/08/26 05:27:49;;;;;;;9.15;4.90;;;;;;;16.46;100.00;97057.53;4962604;28;20141;-52
2023/08/26 05:30:18;;;;;;;9.68;4.97;;;;;;;16.35;100.00;97053.34;4963241;28;20502;-53
2023/08/26 05:32:52;;;;;;;9.52;6.00;;;;;;;16.30;100.00;97070.63;4965221;28;20817;-53
2023/08/26 05:35:19;;;;;;;11.25;5.50;;;;;;;16.31;100.00;97076.91;4961094;28;20104;-63
2023/08/26 05:37:45;;;;;;;11.13;5.40;;;;;;;16.40;100.00;97082.50;4978305;28;20060;-63
2023/08/26 05:40:15;;;;;;;10.90;5.40;;;;;;;16.50;100.00;97099.56;4961106;28;20567;-63
2023/08/26 05:42:41;;;;;;;8.68;5.80;;;;;;;16.62;100.00;97106.50;4972617;28;20042;-62
2023/08/26 05:45:08;;;;;;;9.32;5.80;;;;;;;16.65;100.00;97075.81;4960710;28;20090;-63
2023/08/26 05:47:35;;;;;;;11.30;5.57;;;;;;;16.77;100.00;97078.09;4979024;28;20053;-62
2023/08/26 05:50:04;;;;;;;10.07;6.20;;;;;;;16.87;100.00;97072.44;4969245;28;20039;-62
2023/08/26 05:52:30;;;;;;;11.63;5.28;;;;;;;16.97;100.00;97065.16;4967672;28;20142;-63
2023/08/26 05:54:57;;;;;;;10.32;5.22;;;;;;;17.01;100.00;97066.16;4975951;28;20051;-63
2023/08/26 05:57:24;;;;;;;10.60;5.53;;;;;;;17.10;100.00;97074.53;4967123;28;20057;-63
2023/08/26 05:59:50;;;;;;;11.00;5.70;;;;;;;17.20;100.00;97084.44;4961619;28;20054;-63
2023/08/26 06:02:17;;;;;;;10.05;5.63;;;;;;;17.28;100.00;97078.28;4964884;28;20416;-62
2023/08/26 06:04:43;;;;;;;9.05;5.32;;;;;;;17.29;100.00;97075.25;4974993;28;20061;-63
2023/08/26 06:07:10;;;;;;;11.57;5.20;;;;;;;17.33;100.00;97061.78;4965211;28;20051;-63
2023/08/26 06:09:36;;;;;;;8.40;4.70;;;;;;;17.43;100.00;97052.53;4964540;28;20057;-62
2023/08/26 06:12:03;;;;;;;11.02;4.95;;;;;;;17.48;100.00;97046.97;4947801;28;20089;-62
2023/08/26 06:14:30;;;;;;;7.93;4.90;;;;;;;17.54;100.00;97047.66;4964011;28;20058;-63
2023/08/26 06:16:57;;;;;;;6.93;4.47;;;;;;;17.69;100.00;97038.31;4970024;28;20042;-63
2023/08/26 06:19:24;;;;;;;8.68;4.22;;;;;;;17.81;100.00;97032.31;4989382;28;20092;-63
2023/08/26 06:21:51;;;;;;;6.75;4.28;;;;;;;17.90;100.00;97035.13;4964555;28;20048;-63
2023/08/26 06:24:17;;;;;;;10.00;3.88;;;;;;;17.94;100.00;97030.66;4964154;28;20045;-63
2023/08/26 06:26:44;;;;;;;7.97;4.82;;;;;;;17.97;100.00;97035.53;4978351;28;20676;-62
2023/08/26 06:29:15;;;;;;;6.88;4.28;;;;;;;18.04;100.00;97035.09;4969706;28;20437;-63
2023/08/26 06:31:42;;;;;;;7.57;4.38;;;;;;;18.06;100.00;97038.34;5020061;28;20041;-62
2023/08/26 06:34:11;;;;;;;9.15;4.78;;;;;;;18.03;100.00;97033.47;4947782;28;20051;-62
2023/08/26 06:36:40;;;;;;;7.85;4.93;;;;;;;17.96;100.00;97044.84;5010170;28;20067;-62
2023/08/26 06:39:07;;;;;;;9.07;4.50;;;;;;;18.07;100.00;97042.69;4972308;28;20629;-62
2023/08/26 06:41:34;;;;;;;6.38;4.35;;;;;;;18.11;100.00;97035.50;4967696;28;20437;-62
2023/08/26 06:44:00;;;;;;;7.95;4.15;;;;;;;18.15;100.00;97044.72;5000799;28;20122;-62
2023/08/26 06:46:27;;;;;;;9.07;4.30;;;;;;;18.17;100.00;97042.47;4994184;28;20033;-63
2023/08/26 06:48:54;;;;;;;7.88;4.10;;;;;;;18.12;100.00;97045.34;4975983;28;20050;-62
2023/08/26 06:51:20;;;;;;;9.80;4.53;;;;;;;18.17;100.00;97044.44;4970553;28;20045;-62
2023/08/26 06:53:47;;;;;;;8.27;3.80;;;;;;;18.26;100.00;97030.78;4958079;28;20058;-62
2023/08/26 06:56:15;;;;;;;6.60;3.88;;;;;;;18.35;100.00;97015.19;4973173;28;20046;-62
2023/08/26 06:58:41;;;;;;;8.15;4.40;;;;;;;18.50;100.00;97022.22;4980484;28;20558;-62
2023/08/26 07:01:08;;;;;;;9.43;4.63;;;;;;;18.56;100.00;97023.75;4981227;28;20046;-62
2023/08/26 07:03:35;;;;;;;7.55;3.95;;;;;;;18.58;100.00;97021.47;4990238;28;20511;-62
2023/08/26 07:06:03;;;;;;;6.97;3.75;;;;;;;18.71;100.00;97016.22;4968391;28;20046;-62
2023/08/26 07:08:30;;;;;;;7.50;3.88;;;;;;;18.75;100.00;97022.69;4990420;28;20039;-62
2023/08/26 07:10:56;;;;;;;7.03;4.20;;;;;;;18.79;100.00;97039.34;4970701;28;20051;-62
2023/08/26 07:13:23;;;;;;;7.47;3.67;;;;;;;18.85;100.00;97036.16;4998480;28;20602;-62
2023/08/26 07:15:49;;;;;;;8.55;3.80;;;;;;;18.91;100.00;97038.78;4972665;28;20051;-62
2023/08/26 07:18:16;;;;;;;5.70;3.20;;;;;;;19.11;100.00;97040.19;4986667;28;20054;-62
2023/08/26 07:20:46;;;;;;;12.40;3.90;;;;;;;19.23;100.00;97039.56;4968407;28;20123;-62
2023/08/26 07:23:13;;;;;;;8.73;4.47;;;;;;;19.27;100.00;97046.03;4987650;28;20041;-62
2023/08/26 07:25:41;;;;;;;12.10;4.53;;;;;;;19.07;100.00;97028.22;4966043;28;20047;-62
2023/08/26 07:28:08;;;;;;;5.55;3.45;;;;;;;19.11;100.00;97040.19;4985398;28;20125;-62
2023/08/26 07:30:35;;;;;;;8.13;3.30;;;;;;;19.08;100.00;97038.88;4965477;28;20114;-62
2023/08/26 07:33:01;;;;;;;7.22;4.22;;;;;;;19.12;100.00;97039.03;4975458;28;20055;-62
2023/08/26 07:35:28;;;;;;;4.97;3.20;;;;;;;18.99;100.00;97029.78;4965752;28;20073;-63
2023/08/26 07:37:55;;;;;;;8.10;3.85;;;;;;;19.14;100.00;97025.00;4989712;28;20042;-63
2023/08/26 07:40:22;;;;;;;6.18;3.47;;;;;;;19.16;100.00;97006.31;4967102;28;20042;-62
2023/08/26 07:42:48;;;;;;;14.20;3.75;;;;;;;18.97;100.00;97007.31;4987316;28;20046;-62
2023/08/26 07:45:15;;;;;;;7.35;3.70;;;;;;;19.13;100.00;97015.97;4965505;28;20108;-62
2023/08/26 07:47:42;;;;;;;8.13;3.92;;;;;;;19.28;100.00;97024.91;4992439;28;20125;-62
2023/08/26 07:50:11;;;;;;;10.75;3.72;;;;;;;19.33;100.00;97019.25;4973931;28;20058;-62
2023/08/26 07:52:38;;;;;;;8.02;3.78;;;;;;;19.28;100.00;97017.50;4969625;28;20047;-62
2023/08/26 07:55:05;;;;;;;5.53;3.25;;;;;;;19.49;99.07;97005.91;4972480;28;20046;-62
2023/08/26 07:57:32;;;;;;;5.78;3.05;;;;;;;19.45;97.30;96999.44;4983791;28;20042;-62
2023/08/26 07:59:58;;;;;;;7.75;3.65;;;;;;;19.28;100.00;97012.00;4991492;28;20057;-62
2023/08/26 08:02:25;;;;;;;6.85;3.75;;;;;;;19.27;100.00;97026.03;4986201;28;20028;-62
2023/08/26 08:04:52;;;;;;;7.82;3.83;;;;;;;19.32;100.00;97020.41;4962671;28;20105;-62
2023/08/26 08:07:20;;;;;;;10.57;4.63;;;;;;;19.32;100.00;97021.19;4983083;28;20361;-62
2023/08/26 08:09:46;;;;;;;9.55;3.95;;;;;;;19.08;100.00;97018.84;4965469;28;20055;-62
2023/08/26 08:12:14;;;;;;;7.15;3.33;;;;;;;19.16;100.00;97012.59;4972425;28;20111;-62
2023/08/26 08:14:41;;;;;;;5.10;3.10;;;;;;;19.01;100.00;97021.22;4965544;28;20273;-62
2023/08/26 08:17:08;;;;;;;9.88;3.88;;;;;;;19.09;100.00;97013.03;4985822;28;20100;-62
2023/08/26 08:19:38;;;;;;;6.45;3.30;;;;;;;19.15;100.00;97015.66;4990003;28;20129;-62
2023/08/26 08:22:05;;;;;;;6.28;3.53;;;;;;;19.21;100.00;97011.66;4963265;28;20047;-62
2023/08/26 08:24:32;;;;;;;6.80;3.75;;;;;;;19.34;100.00;97020.88;4964844;28;20074;-62
2023/08/26 08:26:59;;;;;;;8.82;3.60;;;;;;;19.23;100.00;97006.63;4970834;28;20060;-62
2023/08/26 08:29:26;;;;;;;5.97;3.55;;;;;;;19.22;100.00;96992.13;4964757;28;20635;-62
2023/08/26 08:31:52;;;;;;;6.53;4.03;;;;;;;19.15;100.00;97001.91;4965502;28;20518;-62
2023/08/26 08:34:19;;;;;;;10.35;3.42;;;;;;;19.19;100.00;97005.66;4958039;28;20077;-62
2023/08/26 08:36:45;;;;;;;5.90;3.47;;;;;;;19.19;100.00;97003.72;4973431;28;20043;-62
2023/08/26 08:39:12;;;;;;;6.93;4.18;;;;;;;19.21;100.00;97015.19;4963164;28;20047;-62
2023/08/26 08:41:41;;;;;;;9.38;3.10;;;;;;;19.23;100.00;97014.88;4964093;28;20053;-62
2023/08/26 08:44:12;;;;;;;6.90;3.40;;;;;;;19.42;100.00;97000.09;4969697;28;20402;-62
2023/08/26 08:46:40;;;;;;;6.18;3.03;;;;;;;19.75;100.00;97000.44;4970441;28;20418;-62
2023/08/26 08:49:07;;;;;;;5.68;3.40;;;;;;;19.82;96.77;97012.88;4968472;28;20047;-62
2023/08/26 08:51:34;;;;;;;6.80;3.00;;;;;;;19.68;96.74;97018.53;4971482;28;20045;-62
2023/08/26 08:54:04;;;;;;;6.43;2.92;;;;;;;19.88;93.09;97015.19;4972234;28;20047;-62
2023/08/26 08:56:32;;;;;;;5.35;2.45;;;;;;;20.09;94.78;97022.00;4964743;28;20102;-62
2023/08/26 08:59:00;;;;;;;6.28;2.60;;;;;;;19.99;92.32;97026.69;4969048;28;20104;-62
2023/08/26 09:01:28;;;;;;;6.10;2.90;;;;;;;19.94;93.05;97028.75;4963395;28;20593;-62
2023/08/26 09:03:55;;;;;;;11.15;3.90;;;;;;;19.94;91.88;97031.50;4960114;28;20050;-62
2023/08/26 09:06:22;;;;;;;7.43;3.20;;;;;;;19.96;92.48;97037.47;4969184;28;20489;-62
2023/08/26 09:08:49;;;;;;;6.72;2.88;;;;;;;19.91;90.87;97035.69;4973720;28;20058;-62
2023/08/26 09:11:16;;;;;;;9.07;2.60;;;;;;;19.91;90.38;97035.69;4999248;28;20046;-62
2023/08/26 09:13:43;;;;;;;7.50;2.80;;;;;;;19.86;88.57;97028.41;5001067;28;20054;-63
2023/08/26 09:16:09;;;;;;;6.93;2.53;;;;;;;19.77;89.20;97030.34;4962017;28;20076;-62
2023/08/26 09:18:40;;;;;;;6.65;2.67;;;;;;;19.75;90.02;97024.34;4994427;28;20043;-62
2023/08/26 09:21:10;;;;;;;7.82;2.95;;;;;;;19.81;93.35;97017.59;4963095;28;20092;-62
2023/08/26 09:23:43;;;;;;;5.53;2.67;;;;;;;19.91;94.38;97021.97;4994769;28;20522;-62
2023/08/26 09:26:10;;;;;;;5.55;2.97;;;;;;;19.83;96.07;97012.56;4968598;28;20446;-62
2023/08/26 09:28:38;;;;;;;7.10;3.30;;;;;;;19.82;95.31;97010.97;4971526;28;20034;-63
2023/08/26 09:31:06;;;;;;;10.38;3.20;;;;;;;19.92;96.41;97017.25;4960156;28;20043;-62
2023/08/26 09:33:35;;;;;;;8.20;3.05;;;;;;;19.74;94.42;97017.25;4991167;28;20137;-62
2023/08/26 09:36:02;;;;;;;5.20;2.58;;;;;;;19.81;93.41;97012.09;4966913;28;20051;-62
2023/08/26 09:38:47;;;;;;;6.63;2.90;;;;;;;19.80;93.92;97007.75;4966794;28;20505;-62
2023/08/26 09:41:22;;;;;;;7.60;3.65;;;;;;;19.85;92.12;97015.00;4964107;28;20582;-63
2023/08/26 09:43:49;;;;;;;5.97;2.90;;;;;;;20.02;92.29;97014.25;4969109;28;20039;-63
2023/08/26 09:46:20;;;;;;;6.93;2.85;;;;;;;20.00;91.62;97011.81;4966071;28;20662;-63
2023/08/26 09:48:50;;;;;;;;;;;;;;;20.04;91.28;97003.72;4971921;28;20500;-63
2023/08/26 09:51:28;;;;;;;6.80;2.67;;;;;;;20.01;91.03;97012.59;4971236;28;19961;-63
2023/08/26 09:53:55;;;;;;;5.88;2.53;;;;;;;19.99;91.26;97010.22;4969322;28;20047;-63
2023/08/26 09:56:23;;;;;;;5.45;2.97;;;;;;;20.00;90.14;97003.56;4971312;28;20039;-63
2023/08/26 09:58:55;;;;;;;5.07;2.58;;;;;;;19.88;89.83;97014.38;4971110;28;20054;-63
2023/08/26 10:01:24;;;;;;;6.13;2.67;;;;;;;19.89;90.21;97013.22;4963242;28;20050;-63
2023/08/26 10:04:08;;;;;;;5.07;2.38;;;;;;;19.81;89.99;97009.34;4977408;28;20051;-63
2023/08/26 10:06:58;;;;;;;6.78;2.70;;;;;;;19.62;86.87;96991.25;4966322;28;20655;-63
2023/08/26 10:09:43;;;;;;;6.97;2.47;;;;;;;19.66;85.32;96998.81;5009351;28;20057;-63
2023/08/26 10:12:17;;;;;;;6.70;2.08;;;;;;;19.80;84.04;96990.44;4973232;28;20038;-63
2023/08/26 10:14:49;;;;;;;5.72;1.80;;;;;;;20.17;82.26;96984.66;4979256;28;20056;-63
2023/08/26 10:17:20;;;;;;;8.48;2.00;;;;;;;20.40;81.92;96988.00;4961583;28;20122;-63
2023/08/26 10:19:51;;;;;;;7.30;3.08;;;;;;;20.48;81.27;96984.44;5002143;28;20049;-63
2023/08/26 10:22:17;;;;;;;5.03;2.05;;;;;;;20.75;77.57;96984.38;4964919;28;20070;-64
2023/08/26 10:24:45;;;;;;;5.90;1.95;;;;;;;21.00;76.10;96985.44;4981648;28;20076;-63
2023/08/26 10:27:12;;;;;;;5.72;1.85;;;;;;;21.18;73.42;96988.91;4969448;28;20073;-63
2023/08/26 10:29:40;;;;;;;3.40;1.75;;;;;;;21.23;75.35;96984.38;4981756;28;20088;-63
2023/08/26 10:32:17;;;;;;;14.15;2.45;;;;;;;21.49;73.16;96989.69;4965402;28;20047;-63
2023/08/26 10:34:57;;;;;;;5.38;2.08;;;;;;;21.21;70.23;96998.47;4980379;28;20055;-63
2023/08/26 10:37:26;;;;;;;7.60;1.83;;;;;;;21.29;71.11;97002.28;4987056;28;20051;-63
2023/08/26 10:39:54;;;;;;;6.95;1.90;;;;;;;20.91;73.64;96993.75;4980647;28;20078;-63
2023/08/26 10:42:22;;;;;;;4.72;2.40;;;;;;;20.72;77.16;97001.53;4960384;28;20104;-63
2023/08/26 10:44:57;;;;;;;7.88;2.38;;;;;;;20.91;76.35;97010.25;4968193;28;20047;-63
2023/08/26 10:47:33;;;;;;;7.15;2.05;;;;;;;20.96;75.31;97009.25;4972477;28;20066;-63
2023/08/26 10:50:13;;;;;;;5.90;2.10;;;;;;;20.94;75.77;97002.47;4974602;28;20054;-63
2023/08/26 10:52:42;;;;;;;7.43;2.45;;;;;;;20.90;77.92;96992.09;4963984;28;20070;-63
2023/08/26 10:55:20;;;;;;;7.65;2.05;;;;;;;20.86;75.93;96996.63;4963227;28;20116;-63
2023/08/26 10:58:12;;;;;;;5.45;2.03;;;;;;;20.71;76.32;96989.72;4988134;28;20047;-63
2023/08/26 11:00:45;;;;;;;6.00;2.20;;;;;;;20.42;77.80;96991.25;4980234;28;20065;-63
2023/08/26 11:03:13;;;;;;;4.78;1.85;;;;;;;20.40;79.11;96985.25;4980550;28;20035;-63
2023/08/26 11:05:45;;;;;;;5.47;2.20;;;;;;;20.17;80.89;96988.22;4961124;28;20172;-59
2023/08/26 11:08:13;;;;;;;7.15;2.70;;;;;;;19.88;80.10;96992.38;4974452;28;20125;-59
2023/08/26 11:10:41;;;;;;;6.38;2.30;;;;;;;19.94;82.06;96982.03;4976197;28;20812;-59
2023/08/26 11:13:10;;;;;;;5.63;2.17;;;;;;;19.88;80.16;96993.19;4963696;28;20042;-59
2023/08/26 11:15:42;;;;;;;6.45;2.38;;;;;;;19.86;85.00;96984.47;4963790;28;20386;-59
2023/08/26 11:18:10;;;;;;;7.20;2.60;;;;;;;19.89;86.94;96988.50;4993867;28;20046;-59
2023/08/26 11:20:37;;;;;;;7.32;3.17;;;;;;;19.66;90.23;96994.16;4971720;28;20131;-57
2023/08/26 11:23:05;;;;;;;6.82;2.63;;;;;;;19.53;93.57;96984.91;4970470;28;20042;-58
2023/08/26 11:25:36;;;;;;;6.70;2.72;;;;;;;19.42;96.38;96975.38;4965478;28;20035;-59
2023/08/26 11:28:13;;;;;;;5.13;3.10;;;;;;;19.56;99.96;96981.53;4994135;28;20055;-59
2023/08/26 11:30:43;;;;;;;5.03;2.42;;;;;;;19.33;96.70;96989.06;4982256;28;20039;-59